sensor_id;sensor_type;location;lat;lon;timestamp;P1;durP1;ratioP1;P2;durP2;ratioP2
23952;SDS011;12163;49.316;6.092;2023-06-19T00:02:00;12.52;;;7.80;;
23952;SDS011;12163;49.316;6.092;2023-06-19T00:04:27;13.23;;;8.27;;
23952;SDS011;12163;49.316;6.092;2023-06-19T00:06:54;9.88;;;7.65;;
23952;SDS011;12163;49.316;6.092;2023-06-19T00:09:21;10.82;;;8.25;;
23952;SDS011;12163;49.316;6.092;2023-06-19T00:11:48;11.40;;;7.82;;
23952;SDS011;12163;49.316;6.092;2023-06-19T00:14:14;14.07;;;8.35;;
23952;SDS011;12163;49.316;6.092;2023-06-19T00:16:41;14.13;;;8.48;;
23952;SDS011;12163;49.316;6.092;2023-06-19T00:19:08;12.70;;;9.05;;
23952;SDS011;12163;49.316;6.092;2023-06-19T00:21:36;15.48;;;8.48;;
23952;SDS011;12163;49.316;6.092;2023-06-19T00:24:03;12.38;;;8.77;;
23952;SDS011;12163;49.316;6.092;2023-06-19T00:26:31;10.80;;;8.88;;
23952;SDS011;12163;49.316;6.092;2023-06-19T00:28:58;11.27;;;8.80;;
23952;SDS011;12163;49.316;6.092;2023-06-19T00:31:24;17.38;;;10.55;;
23952;SDS011;12163;49.316;6.092;2023-06-19T00:33:53;17.17;;;9.98;;
23952;SDS011;12163;49.316;6.092;2023-06-19T00:36:20;19.75;;;10.05;;
23952;SDS011;12163;49.316;6.092;2023-06-19T00:38:49;15.82;;;9.93;;
23952;SDS011;12163;49.316;6.092;2023-06-19T00:41:16;14.32;;;9.73;;
23952;SDS011;12163;49.316;6.092;2023-06-19T00:43:45;15.43;;;9.40;;
23952;SDS011;12163;49.316;6.092;2023-06-19T00:46:12;14.55;;;9.63;;
23952;SDS011;12163;49.316;6.092;2023-06-19T00:48:39;14.75;;;9.85;;
23952;SDS011;12163;49.316;6.092;2023-06-19T00:51:06;18.15;;;9.93;;
23952;SDS011;12163;49.316;6.092;2023-06-19T00:53:32;14.00;;;9.30;;
23952;SDS011;12163;49.316;6.092;2023-06-19T00:56:00;16.20;;;8.70;;
23952;SDS011;12163;49.316;6.092;2023-06-19T00:58:26;16.30;;;10.00;;
23952;SDS011;12163;49.316;6.092;2023-06-19T01:00:53;16.85;;;9.85;;
23952;SDS011;12163;49.316;6.092;2023-06-19T01:03:33;11.73;;;8.80;;
23952;SDS011;12163;49.316;6.092;2023-06-19T01:06:00;10.10;;;8.20;;
23952;SDS011;12163;49.316;6.092;2023-06-19T01:08:49;13.20;;;8.68;;
23952;SDS011;12163;49.316;6.092;2023-06-19T01:11:23;10.80;;;8.60;;
23952;SDS011;12163;49.316;6.092;2023-06-19T01:13:55;11.85;;;8.65;;
23952;SDS011;12163;49.316;6.092;2023-06-19T01:16:25;14.65;;;8.40;;
23952;SDS011;12163;49.316;6.092;2023-06-19T01:18:54;13.88;;;8.60;;
23952;SDS011;12163;49.316;6.092;2023-06-19T01:21:21;14.13;;;8.32;;
23952;SDS011;12163;49.316;6.092;2023-06-19T01:23:47;14.80;;;9.10;;
23952;SDS011;12163;49.316;6.092;2023-06-19T01:26:17;13.85;;;8.73;;
23952;SDS011;12163;49.316;6.092;2023-06-19T01:28:46;11.95;;;9.38;;
23952;SDS011;12163;49.316;6.092;2023-06-19T01:31:34;15.13;;;8.95;;
23952;SDS011;12163;49.316;6.092;2023-06-19T01:34:08;10.30;;;9.00;;
23952;SDS011;12163;49.316;6.092;2023-06-19T01:36:37;12.50;;;8.98;;
23952;SDS011;12163;49.316;6.092;2023-06-19T01:39:04;12.60;;;8.75;;
23952;SDS011;12163;49.316;6.092;2023-06-19T01:41:33;12.38;;;8.93;;
23952;SDS011;12163;49.316;6.092;2023-06-19T01:44:00;10.23;;;8.95;;
23952;SDS011;12163;49.316;6.092;2023-06-19T01:49:11;14.05;;;8.70;;
23952;SDS011;12163;49.316;6.092;2023-06-19T01:51:38;11.60;;;9.10;;
23952;SDS011;12163;49.316;6.092;2023-06-19T01:54:05;12.48;;;8.20;;
23952;SDS011;12163;49.316;6.092;2023-06-19T01:56:31;9.60;;;7.38;;
23952;SDS011;12163;49.316;6.092;2023-06-19T01:58:58;10.38;;;6.88;;
23952;SDS011;12163;49.316;6.092;2023-06-19T02:01:25;11.02;;;6.50;;
23952;SDS011;12163;49.316;6.092;2023-06-19T02:03:52;9.85;;;6.90;;
23952;SDS011;12163;49.316;6.092;2023-06-19T02:06:19;8.05;;;5.65;;
23952;SDS011;12163;49.316;6.092;2023-06-19T02:08:47;11.68;;;5.70;;
23952;SDS011;12163;49.316;6.092;2023-06-19T02:11:14;8.85;;;5.85;;
23952;SDS011;12163;49.316;6.092;2023-06-19T02:13:41;10.10;;;6.07;;
23952;SDS011;12163;49.316;6.092;2023-06-19T02:16:08;10.00;;;6.50;;
23952;SDS011;12163;49.316;6.092;2023-06-19T02:18:35;11.45;;;6.07;;
23952;SDS011;12163;49.316;6.092;2023-06-19T02:21:02;9.60;;;5.95;;
23952;SDS011;12163;49.316;6.092;2023-06-19T02:23:28;11.65;;;5.70;;
23952;SDS011;12163;49.316;6.092;2023-06-19T02:25:55;6.97;;;5.60;;
23952;SDS011;12163;49.316;6.092;2023-06-19T02:28:22;10.82;;;5.45;;
23952;SDS011;12163;49.316;6.092;2023-06-19T02:30:48;9.00;;;5.85;;
23952;SDS011;12163;49.316;6.092;2023-06-19T02:33:15;6.82;;;5.28;;
23952;SDS011;12163;49.316;6.092;2023-06-19T02:35:42;10.55;;;5.20;;
23952;SDS011;12163;49.316;6.092;2023-06-19T02:38:10;8.52;;;5.18;;
23952;SDS011;12163;49.316;6.092;2023-06-19T02:40:38;9.93;;;4.93;;
23952;SDS011;12163;49.316;6.092;2023-06-19T02:43:05;8.52;;;5.30;;
23952;SDS011;12163;49.316;6.092;2023-06-19T02:45:32;6.93;;;4.55;;
23952;SDS011;12163;49.316;6.092;2023-06-19T02:47:58;6.47;;;3.97;;
23952;SDS011;12163;49.316;6.092;2023-06-19T02:50:25;5.90;;;4.30;;
23952;SDS011;12163;49.316;6.092;2023-06-19T02:52:52;5.22;;;3.88;;
23952;SDS011;12163;49.316;6.092;2023-06-19T02:55:19;6.43;;;3.80;;
23952;SDS011;12163;49.316;6.092;2023-06-19T02:57:45;6.03;;;3.70;;
23952;SDS011;12163;49.316;6.092;2023-06-19T03:00:14;5.07;;;3.47;;
23952;SDS011;12163;49.316;6.092;2023-06-19T03:02:41;4.95;;;3.92;;
23952;SDS011;12163;49.316;6.092;2023-06-19T03:05:11;7.07;;;4.05;;
23952;SDS011;12163;49.316;6.092;2023-06-19T03:07:41;8.10;;;3.65;;
23952;SDS011;12163;49.316;6.092;2023-06-19T03:10:08;9.07;;;4.15;;
23952;SDS011;12163;49.316;6.092;2023-06-19T03:12:35;4.93;;;3.72;;
23952;SDS011;12163;49.316;6.092;2023-06-19T03:15:01;7.25;;;3.97;;
23952;SDS011;12163;49.316;6.092;2023-06-19T03:17:28;6.15;;;3.83;;
23952;SDS011;12163;49.316;6.092;2023-06-19T03:19:55;7.75;;;4.15;;
23952;SDS011;12163;49.316;6.092;2023-06-19T03:22:21;7.85;;;4.28;;
23952;SDS011;12163;49.316;6.092;2023-06-19T03:24:48;9.40;;;4.60;;
23952;SDS011;12163;49.316;6.092;2023-06-19T03:27:14;6.80;;;4.60;;
23952;SDS011;12163;49.316;6.092;2023-06-19T03:29:41;7.18;;;4.40;;
23952;SDS011;12163;49.316;6.092;2023-06-19T03:32:08;6.43;;;4.78;;
23952;SDS011;12163;49.316;6.092;2023-06-19T03:34:34;16.58;;;5.20;;
23952;SDS011;12163;49.316;6.092;2023-06-19T03:37:01;7.97;;;4.35;;
23952;SDS011;12163;49.316;6.092;2023-06-19T03:39:27;6.40;;;4.75;;
23952;SDS011;12163;49.316;6.092;2023-06-19T03:41:54;11.52;;;5.28;;
23952;SDS011;12163;49.316;6.092;2023-06-19T03:44:21;9.23;;;4.82;;
23952;SDS011;12163;49.316;6.092;2023-06-19T03:46:47;7.15;;;4.90;;
23952;SDS011;12163;49.316;6.092;2023-06-19T03:49:14;9.15;;;5.10;;
23952;SDS011;12163;49.316;6.092;2023-06-19T03:51:40;9.77;;;5.30;;
23952;SDS011;12163;49.316;6.092;2023-06-19T03:54:07;7.10;;;5.20;;
23952;SDS011;12163;49.316;6.092;2023-06-19T03:56:33;6.72;;;5.00;;
23952;SDS011;12163;49.316;6.092;2023-06-19T03:59:00;8.77;;;4.97;;
23952;SDS011;12163;49.316;6.092;2023-06-19T04:01:27;10.48;;;5.65;;
23952;SDS011;12163;49.316;6.092;2023-06-19T04:03:53;10.57;;;4.95;;
23952;SDS011;12163;49.316;6.092;2023-06-19T04:06:20;12.13;;;5.20;;
23952;SDS011;12163;49.316;6.092;2023-06-19T04:08:47;9.27;;;4.93;;
23952;SDS011;12163;49.316;6.092;2023-06-19T04:11:13;9.25;;;4.93;;
23952;SDS011;12163;49.316;6.092;2023-06-19T04:13:40;12.30;;;5.63;;
23952;SDS011;12163;49.316;6.092;2023-06-19T04:16:07;9.25;;;5.20;;
23952;SDS011;12163;49.316;6.092;2023-06-19T04:18:34;10.88;;;4.93;;
23952;SDS011;12163;49.316;6.092;2023-06-19T04:21:00;14.02;;;4.93;;
23952;SDS011;12163;49.316;6.092;2023-06-19T04:23:27;6.65;;;4.47;;
23952;SDS011;12163;49.316;6.092;2023-06-19T04:25:54;10.23;;;5.80;;
23952;SDS011;12163;49.316;6.092;2023-06-19T04:28:20;8.93;;;5.13;;
23952;SDS011;12163;49.316;6.092;2023-06-19T04:30:47;10.77;;;4.90;;
23952;SDS011;12163;49.316;6.092;2023-06-19T04:33:14;7.75;;;4.70;;
23952;SDS011;12163;49.316;6.092;2023-06-19T04:35:41;10.65;;;5.00;;
23952;SDS011;12163;49.316;6.092;2023-06-19T04:38:07;11.00;;;5.28;;
23952;SDS011;12163;49.316;6.092;2023-06-19T04:40:35;8.23;;;4.22;;
23952;SDS011;12163;49.316;6.092;2023-06-19T04:43:02;7.70;;;5.05;;
23952;SDS011;12163;49.316;6.092;2023-06-19T04:45:28;7.63;;;4.57;;
23952;SDS011;12163;49.316;6.092;2023-06-19T04:47:55;6.85;;;4.78;;
23952;SDS011;12163;49.316;6.092;2023-06-19T04:50:22;8.48;;;4.82;;
23952;SDS011;12163;49.316;6.092;2023-06-19T04:52:49;9.15;;;5.13;;
23952;SDS011;12163;49.316;6.092;2023-06-19T04:55:17;7.50;;;4.93;;
23952;SDS011;12163;49.316;6.092;2023-06-19T04:57:44;10.48;;;4.88;;
23952;SDS011;12163;49.316;6.092;2023-06-19T05:00:11;11.23;;;4.32;;
23952;SDS011;12163;49.316;6.092;2023-06-19T05:02:39;9.02;;;4.13;;
23952;SDS011;12163;49.316;6.092;2023-06-19T05:05:10;9.03;;;5.10;;
23952;SDS011;12163;49.316;6.092;2023-06-19T05:07:37;7.88;;;4.75;;
23952;SDS011;12163;49.316;6.092;2023-06-19T05:10:04;13.52;;;4.65;;
23952;SDS011;12163;49.316;6.092;2023-06-19T05:12:31;11.23;;;4.90;;
23952;SDS011;12163;49.316;6.092;2023-06-19T05:14:58;12.73;;;4.43;;
23952;SDS011;12163;49.316;6.092;2023-06-19T05:17:24;10.63;;;4.43;;
23952;SDS011;12163;49.316;6.092;2023-06-19T05:19:51;11.18;;;3.90;;
23952;SDS011;12163;49.316;6.092;2023-06-19T05:22:18;8.93;;;4.00;;
23952;SDS011;12163;49.316;6.092;2023-06-19T05:24:50;6.18;;;3.30;;
23952;SDS011;12163;49.316;6.092;2023-06-19T05:29:43;8.83;;;3.73;;
23952;SDS011;12163;49.316;6.092;2023-06-19T05:32:10;5.93;;;3.15;;
23952;SDS011;12163;49.316;6.092;2023-06-19T05:34:37;3.85;;;3.30;;
23952;SDS011;12163;49.316;6.092;2023-06-19T05:37:03;8.65;;;2.90;;
23952;SDS011;12163;49.316;6.092;2023-06-19T05:39:30;11.77;;;4.32;;
23952;SDS011;12163;49.316;6.092;2023-06-19T05:41:57;5.75;;;3.40;;
23952;SDS011;12163;49.316;6.092;2023-06-19T05:44:24;9.30;;;4.28;;
23952;SDS011;12163;49.316;6.092;2023-06-19T05:46:51;7.78;;;3.50;;
23952;SDS011;12163;49.316;6.092;2023-06-19T05:49:18;5.47;;;4.30;;
23952;SDS011;12163;49.316;6.092;2023-06-19T05:51:44;8.18;;;4.22;;
23952;SDS011;12163;49.316;6.092;2023-06-19T05:54:11;9.88;;;3.53;;
23952;SDS011;12163;49.316;6.092;2023-06-19T05:56:38;5.25;;;3.78;;
23952;SDS011;12163;49.316;6.092;2023-06-19T05:59:04;8.77;;;4.40;;
23952;SDS011;12163;49.316;6.092;2023-06-19T06:01:31;8.43;;;6.25;;
23952;SDS011;12163;49.316;6.092;2023-06-19T06:03:58;8.52;;;3.50;;
23952;SDS011;12163;49.316;6.092;2023-06-19T06:06:25;10.75;;;3.90;;
23952;SDS011;12163;49.316;6.092;2023-06-19T06:08:52;6.03;;;3.22;;
23952;SDS011;12163;49.316;6.092;2023-06-19T06:11:19;12.45;;;4.28;;
23952;SDS011;12163;49.316;6.092;2023-06-19T06:13:46;13.13;;;4.07;;
23952;SDS011;12163;49.316;6.092;2023-06-19T06:16:13;6.22;;;3.70;;
23952;SDS011;12163;49.316;6.092;2023-06-19T06:18:41;5.57;;;3.88;;
23952;SDS011;12163;49.316;6.092;2023-06-19T06:21:07;7.07;;;3.00;;
23952;SDS011;12163;49.316;6.092;2023-06-19T06:23:34;7.45;;;4.25;;
23952;SDS011;12163;49.316;6.092;2023-06-19T06:26:03;6.53;;;3.78;;
23952;SDS011;12163;49.316;6.092;2023-06-19T06:28:29;6.55;;;3.30;;
23952;SDS011;12163;49.316;6.092;2023-06-19T06:30:57;8.20;;;3.50;;
23952;SDS011;12163;49.316;6.092;2023-06-19T06:33:24;6.88;;;3.95;;
23952;SDS011;12163;49.316;6.092;2023-06-19T06:35:51;7.60;;;3.63;;
23952;SDS011;12163;49.316;6.092;2023-06-19T06:38:18;4.85;;;3.28;;
23952;SDS011;12163;49.316;6.092;2023-06-19T06:40:44;6.05;;;3.38;;
23952;SDS011;12163;49.316;6.092;2023-06-19T06:43:11;6.85;;;3.60;;
23952;SDS011;12163;49.316;6.092;2023-06-19T06:45:38;8.02;;;3.38;;
23952;SDS011;12163;49.316;6.092;2023-06-19T06:48:05;5.15;;;2.92;;
23952;SDS011;12163;49.316;6.092;2023-06-19T06:50:33;9.23;;;4.35;;
23952;SDS011;12163;49.316;6.092;2023-06-19T06:53:00;6.05;;;3.53;;
23952;SDS011;12163;49.316;6.092;2023-06-19T06:55:27;7.53;;;3.70;;
23952;SDS011;12163;49.316;6.092;2023-06-19T06:57:54;6.85;;;3.30;;
23952;SDS011;12163;49.316;6.092;2023-06-19T07:00:20;7.15;;;3.63;;
23952;SDS011;12163;49.316;6.092;2023-06-19T07:02:48;5.65;;;3.35;;
23952;SDS011;12163;49.316;6.092;2023-06-19T07:05:17;5.03;;;3.22;;
23952;SDS011;12163;49.316;6.092;2023-06-19T07:07:44;6.63;;;3.30;;
23952;SDS011;12163;49.316;6.092;2023-06-19T07:10:11;6.20;;;3.20;;
23952;SDS011;12163;49.316;6.092;2023-06-19T07:12:45;7.40;;;3.38;;
23952;SDS011;12163;49.316;6.092;2023-06-19T07:15:13;5.03;;;2.53;;
23952;SDS011;12163;49.316;6.092;2023-06-19T07:17:40;6.85;;;2.83;;
23952;SDS011;12163;49.316;6.092;2023-06-19T07:20:07;4.85;;;3.03;;
23952;SDS011;12163;49.316;6.092;2023-06-19T07:22:34;4.65;;;2.90;;
23952;SDS011;12163;49.316;6.092;2023-06-19T07:25:01;6.10;;;3.25;;
23952;SDS011;12163;49.316;6.092;2023-06-19T07:27:30;9.88;;;3.50;;
23952;SDS011;12163;49.316;6.092;2023-06-19T07:29:57;7.18;;;2.85;;
23952;SDS011;12163;49.316;6.092;2023-06-19T07:32:23;5.45;;;2.75;;
23952;SDS011;12163;49.316;6.092;2023-06-19T07:34:50;7.13;;;3.30;;
23952;SDS011;12163;49.316;6.092;2023-06-19T07:37:16;3.55;;;2.65;;
23952;SDS011;12163;49.316;6.092;2023-06-19T07:39:47;4.97;;;2.83;;
23952;SDS011;12163;49.316;6.092;2023-06-19T07:42:16;5.95;;;2.92;;
23952;SDS011;12163;49.316;6.092;2023-06-19T07:44:44;5.90;;;2.42;;
23952;SDS011;12163;49.316;6.092;2023-06-19T07:47:11;5.00;;;2.83;;
23952;SDS011;12163;49.316;6.092;2023-06-19T07:49:39;6.30;;;2.88;;
23952;SDS011;12163;49.316;6.092;2023-06-19T07:52:06;3.00;;;2.25;;
23952;SDS011;12163;49.316;6.092;2023-06-19T07:54:36;6.72;;;2.60;;
23952;SDS011;12163;49.316;6.092;2023-06-19T07:57:03;8.95;;;2.53;;
23952;SDS011;12163;49.316;6.092;2023-06-19T07:59:29;3.63;;;2.80;;
23952;SDS011;12163;49.316;6.092;2023-06-19T08:01:56;4.45;;;2.53;;
23952;SDS011;12163;49.316;6.092;2023-06-19T08:04:23;5.00;;;2.45;;
23952;SDS011;12163;49.316;6.092;2023-06-19T08:06:49;3.85;;;2.80;;
23952;SDS011;12163;49.316;6.092;2023-06-19T08:09:16;5.13;;;3.05;;
23952;SDS011;12163;49.316;6.092;2023-06-19T08:11:42;5.32;;;2.60;;
23952;SDS011;12163;49.316;6.092;2023-06-19T08:14:09;4.75;;;3.20;;
23952;SDS011;12163;49.316;6.092;2023-06-19T08:16:36;8.85;;;2.75;;
23952;SDS011;12163;49.316;6.092;2023-06-19T08:19:02;6.95;;;2.70;;
23952;SDS011;12163;49.316;6.092;2023-06-19T08:21:29;4.80;;;2.97;;
23952;SDS011;12163;49.316;6.092;2023-06-19T08:23:56;4.70;;;2.80;;
23952;SDS011;12163;49.316;6.092;2023-06-19T08:26:22;6.32;;;2.35;;
23952;SDS011;12163;49.316;6.092;2023-06-19T08:28:49;8.57;;;3.30;;
23952;SDS011;12163;49.316;6.092;2023-06-19T08:31:16;4.18;;;2.80;;
23952;SDS011;12163;49.316;6.092;2023-06-19T08:33:43;5.88;;;3.20;;
23952;SDS011;12163;49.316;6.092;2023-06-19T08:36:09;4.20;;;2.55;;
23952;SDS011;12163;49.316;6.092;2023-06-19T08:38:36;5.35;;;2.42;;
23952;SDS011;12163;49.316;6.092;2023-06-19T08:41:03;3.83;;;2.63;;
23952;SDS011;12163;49.316;6.092;2023-06-19T08:43:29;7.20;;;3.05;;
23952;SDS011;12163;49.316;6.092;2023-06-19T08:46:10;4.90;;;2.70;;
23952;SDS011;12163;49.316;6.092;2023-06-19T08:48:38;4.50;;;2.80;;
23952;SDS011;12163;49.316;6.092;2023-06-19T08:51:05;6.80;;;2.92;;
23952;SDS011;12163;49.316;6.092;2023-06-19T08:53:36;3.35;;;2.80;;
23952;SDS011;12163;49.316;6.092;2023-06-19T08:56:09;4.97;;;2.75;;
23952;SDS011;12163;49.316;6.092;2023-06-19T08:58:37;3.40;;;2.88;;
23952;SDS011;12163;49.316;6.092;2023-06-19T09:01:04;6.55;;;2.90;;
23952;SDS011;12163;49.316;6.092;2023-06-19T09:03:31;6.55;;;2.97;;
23952;SDS011;12163;49.316;6.092;2023-06-19T09:06:02;8.68;;;2.80;;
23952;SDS011;12163;49.316;6.092;2023-06-19T09:08:30;3.38;;;2.67;;
23952;SDS011;12163;49.316;6.092;2023-06-19T09:11:01;4.97;;;2.90;;
23952;SDS011;12163;49.316;6.092;2023-06-19T09:18:44;4.18;;;2.88;;
23952;SDS011;12163;49.316;6.092;2023-06-19T09:21:16;7.82;;;3.25;;
23952;SDS011;12163;49.316;6.092;2023-06-19T09:23:45;4.63;;;3.10;;
23952;SDS011;12163;49.316;6.092;2023-06-19T09:26:15;3.22;;;2.65;;
23952;SDS011;12163;49.316;6.092;2023-06-19T09:28:43;4.95;;;2.70;;
23952;SDS011;12163;49.316;6.092;2023-06-19T09:31:09;9.90;;;3.55;;
23952;SDS011;12163;49.316;6.092;2023-06-19T09:33:37;7.00;;;2.40;;
23952;SDS011;12163;49.316;6.092;2023-06-19T09:36:04;3.90;;;2.38;;
23952;SDS011;12163;49.316;6.092;2023-06-19T09:38:32;3.00;;;2.40;;
23952;SDS011;12163;49.316;6.092;2023-06-19T09:41:03;12.38;;;2.83;;
23952;SDS011;12163;49.316;6.092;2023-06-19T09:43:37;4.18;;;2.67;;
23952;SDS011;12163;49.316;6.092;2023-06-19T09:46:05;6.70;;;2.85;;
23952;SDS011;12163;49.316;6.092;2023-06-19T09:48:33;4.60;;;2.50;;
23952;SDS011;12163;49.316;6.092;2023-06-19T09:53:37;4.32;;;2.50;;
23952;SDS011;12163;49.316;6.092;2023-06-19T09:56:04;7.50;;;2.75;;
23952;SDS011;12163;49.316;6.092;2023-06-19T09:58:30;4.13;;;2.47;;
23952;SDS011;12163;49.316;6.092;2023-06-19T10:00:58;7.72;;;3.03;;
23952;SDS011;12163;49.316;6.092;2023-06-19T10:03:32;5.78;;;2.50;;
23952;SDS011;12163;49.316;6.092;2023-06-19T10:06:00;4.20;;;2.30;;
23952;SDS011;12163;49.316;6.092;2023-06-19T10:08:31;3.35;;;2.40;;
23952;SDS011;12163;49.316;6.092;2023-06-19T10:10:58;5.53;;;2.50;;
23952;SDS011;12163;49.316;6.092;2023-06-19T10:13:32;6.28;;;2.60;;
23952;SDS011;12163;49.316;6.092;2023-06-19T10:16:00;5.53;;;2.70;;
23952;SDS011;12163;49.316;6.092;2023-06-19T10:18:27;3.15;;;2.40;;
23952;SDS011;12163;49.316;6.092;2023-06-19T10:20:54;4.22;;;2.60;;
23952;SDS011;12163;49.316;6.092;2023-06-19T10:23:22;5.18;;;2.63;;
23952;SDS011;12163;49.316;6.092;2023-06-19T10:28:21;4.80;;;2.83;;
23952;SDS011;12163;49.316;6.092;2023-06-19T10:30:54;3.85;;;2.47;;
23952;SDS011;12163;49.316;6.092;2023-06-19T10:33:31;5.57;;;2.58;;
23952;SDS011;12163;49.316;6.092;2023-06-19T10:36:00;3.15;;;2.40;;
23952;SDS011;12163;49.316;6.092;2023-06-19T10:38:28;4.68;;;2.50;;
23952;SDS011;12163;49.316;6.092;2023-06-19T10:40:55;3.95;;;2.63;;
23952;SDS011;12163;49.316;6.092;2023-06-19T10:43:22;4.40;;;2.42;;
23952;SDS011;12163;49.316;6.092;2023-06-19T10:45:58;4.10;;;2.55;;
23952;SDS011;12163;49.316;6.092;2023-06-19T10:50:52;3.05;;;2.40;;
23952;SDS011;12163;49.316;6.092;2023-06-19T10:55:55;3.40;;;2.53;;
23952;SDS011;12163;49.316;6.092;2023-06-19T10:58:23;5.47;;;2.50;;
23952;SDS011;12163;49.316;6.092;2023-06-19T11:00:49;3.65;;;2.65;;
23952;SDS011;12163;49.316;6.092;2023-06-19T11:08:10;5.40;;;2.33;;
23952;SDS011;12163;49.316;6.092;2023-06-19T11:10:37;5.50;;;2.60;;
23952;SDS011;12163;49.316;6.092;2023-06-19T11:13:03;6.25;;;2.30;;
23952;SDS011;12163;49.316;6.092;2023-06-19T11:15:33;4.72;;;2.85;;
23952;SDS011;12163;49.316;6.092;2023-06-19T11:18:01;2.58;;;2.38;;
23952;SDS011;12163;49.316;6.092;2023-06-19T11:20:28;4.80;;;2.35;;
23952;SDS011;12163;49.316;6.092;2023-06-19T11:22:59;4.68;;;2.63;;
23952;SDS011;12163;49.316;6.092;2023-06-19T11:25:37;3.75;;;2.47;;
23952;SDS011;12163;49.316;6.092;2023-06-19T11:28:04;4.28;;;2.30;;
23952;SDS011;12163;49.316;6.092;2023-06-19T11:30:37;4.13;;;2.42;;
23952;SDS011;12163;49.316;6.092;2023-06-19T11:33:03;4.65;;;2.50;;
23952;SDS011;12163;49.316;6.092;2023-06-19T11:35:50;3.30;;;2.35;;
23952;SDS011;12163;49.316;6.092;2023-06-19T11:38:22;6.05;;;2.65;;
23952;SDS011;12163;49.316;6.092;2023-06-19T11:40:51;5.63;;;2.95;;
23952;SDS011;12163;49.316;6.092;2023-06-19T11:48:31;4.70;;;2.30;;
23952;SDS011;12163;49.316;6.092;2023-06-19T11:55:51;2.78;;;2.38;;
23952;SDS011;12163;49.316;6.092;2023-06-19T12:10:34;3.25;;;2.95;;
23952;SDS011;12163;49.316;6.092;2023-06-19T12:15:27;4.43;;;2.78;;
23952;SDS011;12163;49.316;6.092;2023-06-19T12:32:34;7.85;;;2.60;;
23952;SDS011;12163;49.316;6.092;2023-06-19T12:39:55;7.68;;;2.33;;
23952;SDS011;12163;49.316;6.092;2023-06-19T13:09:18;6.75;;;2.67;;
23952;SDS011;12163;49.316;6.092;2023-06-19T13:16:38;5.35;;;2.50;;
23952;SDS011;12163;49.316;6.092;2023-06-19T13:19:07;8.00;;;2.45;;
23952;SDS011;12163;49.316;6.092;2023-06-19T13:21:34;6.57;;;2.60;;
23952;SDS011;12163;49.316;6.092;2023-06-19T13:24:02;3.35;;;2.30;;
23952;SDS011;12163;49.316;6.092;2023-06-19T13:26:29;4.57;;;2.90;;
23952;SDS011;12163;49.316;6.092;2023-06-19T13:28:55;10.57;;;2.75;;
23952;SDS011;12163;49.316;6.092;2023-06-19T13:31:25;6.03;;;2.45;;
23952;SDS011;12163;49.316;6.092;2023-06-19T13:33:52;3.75;;;2.40;;
23952;SDS011;12163;49.316;6.092;2023-06-19T13:36:18;9.93;;;2.60;;
23952;SDS011;12163;49.316;6.092;2023-06-19T13:38:45;5.78;;;2.72;;
23952;SDS011;12163;49.316;6.092;2023-06-19T13:41:13;7.45;;;2.92;;
23952;SDS011;12163;49.316;6.092;2023-06-19T13:43:39;2.88;;;2.50;;
23952;SDS011;12163;49.316;6.092;2023-06-19T13:46:07;6.03;;;2.78;;
23952;SDS011;12163;49.316;6.092;2023-06-19T13:48:34;5.07;;;2.72;;
23952;SDS011;12163;49.316;6.092;2023-06-19T13:51:01;4.90;;;2.65;;
23952;SDS011;12163;49.316;6.092;2023-06-19T13:53:28;6.72;;;2.70;;
23952;SDS011;12163;49.316;6.092;2023-06-19T13:55:57;6.13;;;2.65;;
23952;SDS011;12163;49.316;6.092;2023-06-19T13:58:24;6.28;;;2.20;;
23952;SDS011;12163;49.316;6.092;2023-06-19T14:00:50;7.00;;;2.70;;
23952;SDS011;12163;49.316;6.092;2023-06-19T14:03:18;4.03;;;2.80;;
23952;SDS011;12163;49.316;6.092;2023-06-19T14:05:45;4.28;;;2.80;;
23952;SDS011;12163;49.316;6.092;2023-06-19T14:08:12;4.15;;;2.47;;
23952;SDS011;12163;49.316;6.092;2023-06-19T14:10:38;5.43;;;2.60;;
23952;SDS011;12163;49.316;6.092;2023-06-19T14:13:05;5.13;;;2.50;;
23952;SDS011;12163;49.316;6.092;2023-06-19T14:15:31;4.63;;;2.92;;
23952;SDS011;12163;49.316;6.092;2023-06-19T14:17:58;5.07;;;2.90;;
23952;SDS011;12163;49.316;6.092;2023-06-19T14:25:18;5.53;;;2.70;;
23952;SDS011;12163;49.316;6.092;2023-06-19T14:32:38;5.88;;;2.60;;
23952;SDS011;12163;49.316;6.092;2023-06-19T14:35:04;3.72;;;2.53;;
23952;SDS011;12163;49.316;6.092;2023-06-19T14:37:31;3.25;;;2.58;;
23952;SDS011;12163;49.316;6.092;2023-06-19T14:39:58;7.05;;;2.70;;
23952;SDS011;12163;49.316;6.092;2023-06-19T14:42:25;9.18;;;2.75;;
23952;SDS011;12163;49.316;6.092;2023-06-19T14:44:52;3.25;;;2.83;;
23952;SDS011;12163;49.316;6.092;2023-06-19T14:47:18;2.92;;;2.60;;
23952;SDS011;12163;49.316;6.092;2023-06-19T14:49:45;3.53;;;2.90;;
23952;SDS011;12163;49.316;6.092;2023-06-19T14:52:12;3.33;;;2.70;;
23952;SDS011;12163;49.316;6.092;2023-06-19T14:54:39;5.43;;;3.00;;
23952;SDS011;12163;49.316;6.092;2023-06-19T14:57:05;5.22;;;2.97;;
23952;SDS011;12163;49.316;6.092;2023-06-19T14:59:32;3.53;;;2.72;;
23952;SDS011;12163;49.316;6.092;2023-06-19T15:01:59;3.78;;;2.95;;
23952;SDS011;12163;49.316;6.092;2023-06-19T15:04:26;5.13;;;2.55;;
23952;SDS011;12163;49.316;6.092;2023-06-19T15:06:53;5.43;;;2.78;;
23952;SDS011;12163;49.316;6.092;2023-06-19T15:09:19;3.35;;;2.53;;
23952;SDS011;12163;49.316;6.092;2023-06-19T15:11:46;4.10;;;2.90;;
23952;SDS011;12163;49.316;6.092;2023-06-19T15:14:13;3.38;;;2.80;;
23952;SDS011;12163;49.316;6.092;2023-06-19T15:16:39;5.47;;;2.92;;
23952;SDS011;12163;49.316;6.092;2023-06-19T15:19:06;9.10;;;3.00;;
23952;SDS011;12163;49.316;6.092;2023-06-19T15:21:33;5.55;;;3.10;;
23952;SDS011;12163;49.316;6.092;2023-06-19T15:23:59;5.95;;;3.00;;
23952;SDS011;12163;49.316;6.092;2023-06-19T15:26:26;5.15;;;3.10;;
23952;SDS011;12163;49.316;6.092;2023-06-19T15:28:53;7.22;;;3.40;;
23952;SDS011;12163;49.316;6.092;2023-06-19T15:31:20;5.57;;;3.40;;
23952;SDS011;12163;49.316;6.092;2023-06-19T15:33:49;4.80;;;2.97;;
23952;SDS011;12163;49.316;6.092;2023-06-19T15:36:16;4.55;;;3.10;;
23952;SDS011;12163;49.316;6.092;2023-06-19T15:38:43;3.47;;;3.17;;
23952;SDS011;12163;49.316;6.092;2023-06-19T15:41:10;12.80;;;2.90;;
23952;SDS011;12163;49.316;6.092;2023-06-19T15:43:37;6.38;;;3.25;;
23952;SDS011;12163;49.316;6.092;2023-06-19T15:46:05;9.77;;;3.05;;
23952;SDS011;12163;49.316;6.092;2023-06-19T15:48:33;6.95;;;2.97;;
23952;SDS011;12163;49.316;6.092;2023-06-19T15:51:01;7.32;;;2.50;;
23952;SDS011;12163;49.316;6.092;2023-06-19T15:53:28;8.95;;;3.38;;
23952;SDS011;12163;49.316;6.092;2023-06-19T15:55:54;8.40;;;3.08;;
23952;SDS011;12163;49.316;6.092;2023-06-19T15:58:21;5.40;;;2.80;;
23952;SDS011;12163;49.316;6.092;2023-06-19T16:00:48;4.00;;;3.00;;
23952;SDS011;12163;49.316;6.092;2023-06-19T16:03:18;10.15;;;3.20;;
23952;SDS011;12163;49.316;6.092;2023-06-19T16:05:49;6.05;;;2.95;;
23952;SDS011;12163;49.316;6.092;2023-06-19T16:08:21;5.05;;;3.42;;
23952;SDS011;12163;49.316;6.092;2023-06-19T16:10:51;6.45;;;3.00;;
23952;SDS011;12163;49.316;6.092;2023-06-19T16:13:18;6.82;;;3.33;;
23952;SDS011;12163;49.316;6.092;2023-06-19T16:15:45;4.97;;;3.10;;
23952;SDS011;12163;49.316;6.092;2023-06-19T16:18:11;4.55;;;2.85;;
23952;SDS011;12163;49.316;6.092;2023-06-19T16:20:38;7.13;;;3.20;;
23952;SDS011;12163;49.316;6.092;2023-06-19T16:23:05;7.55;;;3.40;;
23952;SDS011;12163;49.316;6.092;2023-06-19T16:25:31;5.22;;;3.30;;
23952;SDS011;12163;49.316;6.092;2023-06-19T16:27:58;9.10;;;3.20;;
23952;SDS011;12163;49.316;6.092;2023-06-19T16:30:27;8.88;;;3.25;;
23952;SDS011;12163;49.316;6.092;2023-06-19T16:32:54;5.10;;;3.00;;
23952;SDS011;12163;49.316;6.092;2023-06-19T16:35:21;6.47;;;3.20;;
23952;SDS011;12163;49.316;6.092;2023-06-19T16:37:51;6.80;;;3.20;;
23952;SDS011;12163;49.316;6.092;2023-06-19T16:40:22;3.55;;;3.15;;